sensor_id;sensor_type;location;lat;lon;timestamp;P1;durP1;ratioP1;P2;durP2;ratioP2
34278;SDS011;20538;51.528;9.942;2023-10-13T00:02:13;6.28;;;3.40;;
34278;SDS011;20538;51.528;9.942;2023-10-13T00:04:39;4.13;;;2.88;;
34278;SDS011;20538;51.528;9.942;2023-10-13T00:07:04;3.50;;;2.38;;
34278;SDS011;20538;51.528;9.942;2023-10-13T00:09:34;3.88;;;2.50;;
34278;SDS011;20538;51.528;9.942;2023-10-13T00:12:02;3.60;;;2.38;;
34278;SDS011;20538;51.528;9.942;2023-10-13T00:14:30;11.52;;;2.60;;
34278;SDS011;20538;51.528;9.942;2023-10-13T00:17:00;4.95;;;2.95;;
34278;SDS011;20538;51.528;9.942;2023-10-13T00:19:28;6.07;;;2.60;;
34278;SDS011;20538;51.528;9.942;2023-10-13T00:22:10;4.68;;;2.60;;
34278;SDS011;20538;51.528;9.942;2023-10-13T00:24:40;4.18;;;2.30;;
34278;SDS011;20538;51.528;9.942;2023-10-13T00:27:14;6.13;;;2.80;;
34278;SDS011;20538;51.528;9.942;2023-10-13T00:29:58;6.43;;;2.72;;
34278;SDS011;20538;51.528;9.942;2023-10-13T00:32:54;3.45;;;1.80;;
34278;SDS011;20538;51.528;9.942;2023-10-13T00:35:20;4.18;;;3.00;;
34278;SDS011;20538;51.528;9.942;2023-10-13T00:37:59;7.28;;;2.38;;
34278;SDS011;20538;51.528;9.942;2023-10-13T00:40:29;4.05;;;2.38;;
34278;SDS011;20538;51.528;9.942;2023-10-13T00:42:56;4.35;;;2.47;;
34278;SDS011;20538;51.528;9.942;2023-10-13T00:45:46;3.72;;;2.53;;
34278;SDS011;20538;51.528;9.942;2023-10-13T00:48:23;2.80;;;1.85;;
34278;SDS011;20538;51.528;9.942;2023-10-13T00:50:57;3.53;;;2.00;;
34278;SDS011;20538;51.528;9.942;2023-10-13T00:53:28;4.85;;;2.55;;
34278;SDS011;20538;51.528;9.942;2023-10-13T00:55:55;4.28;;;2.70;;
34278;SDS011;20538;51.528;9.942;2023-10-13T00:58:21;9.13;;;2.75;;
34278;SDS011;20538;51.528;9.942;2023-10-13T01:00:50;5.25;;;2.65;;
34278;SDS011;20538;51.528;9.942;2023-10-13T01:03:22;5.07;;;2.50;;
34278;SDS011;20538;51.528;9.942;2023-10-13T01:05:52;3.53;;;2.15;;
34278;SDS011;20538;51.528;9.942;2023-10-13T01:08:30;3.25;;;2.38;;
34278;SDS011;20538;51.528;9.942;2023-10-13T01:10:59;5.28;;;2.33;;
34278;SDS011;20538;51.528;9.942;2023-10-13T01:13:25;9.85;;;2.85;;
34278;SDS011;20538;51.528;9.942;2023-10-13T01:15:52;5.07;;;2.78;;
34278;SDS011;20538;51.528;9.942;2023-10-13T01:18:18;3.13;;;2.13;;
34278;SDS011;20538;51.528;9.942;2023-10-13T01:20:44;3.75;;;2.13;;
34278;SDS011;20538;51.528;9.942;2023-10-13T01:23:12;4.32;;;2.30;;
34278;SDS011;20538;51.528;9.942;2023-10-13T01:25:44;4.55;;;2.72;;
34278;SDS011;20538;51.528;9.942;2023-10-13T01:28:11;3.28;;;2.08;;
34278;SDS011;20538;51.528;9.942;2023-10-13T01:30:44;4.90;;;2.33;;
34278;SDS011;20538;51.528;9.942;2023-10-13T01:33:14;9.23;;;2.42;;
34278;SDS011;20538;51.528;9.942;2023-10-13T01:35:52;3.38;;;2.35;;
34278;SDS011;20538;51.528;9.942;2023-10-13T01:38:20;4.55;;;2.38;;
34278;SDS011;20538;51.528;9.942;2023-10-13T01:40:46;4.70;;;2.97;;
34278;SDS011;20538;51.528;9.942;2023-10-13T01:43:16;9.90;;;3.05;;
34278;SDS011;20538;51.528;9.942;2023-10-13T01:45:42;6.50;;;2.80;;
34278;SDS011;20538;51.528;9.942;2023-10-13T01:48:14;3.78;;;2.75;;
34278;SDS011;20538;51.528;9.942;2023-10-13T01:50:42;4.03;;;2.85;;
34278;SDS011;20538;51.528;9.942;2023-10-13T01:53:12;4.32;;;2.78;;
34278;SDS011;20538;51.528;9.942;2023-10-13T01:55:42;3.85;;;2.40;;
34278;SDS011;20538;51.528;9.942;2023-10-13T01:58:11;5.47;;;2.45;;
34278;SDS011;20538;51.528;9.942;2023-10-13T02:00:41;5.25;;;3.53;;
34278;SDS011;20538;51.528;9.942;2023-10-13T02:03:08;5.32;;;3.08;;
34278;SDS011;20538;51.528;9.942;2023-10-13T02:05:44;4.50;;;2.95;;
34278;SDS011;20538;51.528;9.942;2023-10-13T02:08:20;10.50;;;3.03;;
34278;SDS011;20538;51.528;9.942;2023-10-13T02:10:53;5.35;;;2.75;;
34278;SDS011;20538;51.528;9.942;2023-10-13T02:13:20;9.00;;;3.03;;
34278;SDS011;20538;51.528;9.942;2023-10-13T02:15:48;6.53;;;3.45;;
34278;SDS011;20538;51.528;9.942;2023-10-13T02:18:16;3.55;;;2.78;;
34278;SDS011;20538;51.528;9.942;2023-10-13T02:20:50;7.15;;;4.03;;
34278;SDS011;20538;51.528;9.942;2023-10-13T02:23:23;6.30;;;3.80;;
34278;SDS011;20538;51.528;9.942;2023-10-13T02:25:54;9.20;;;3.78;;
34278;SDS011;20538;51.528;9.942;2023-10-13T02:28:29;5.07;;;3.50;;
34278;SDS011;20538;51.528;9.942;2023-10-13T02:31:01;5.32;;;3.10;;
34278;SDS011;20538;51.528;9.942;2023-10-13T02:33:28;4.22;;;2.85;;
34278;SDS011;20538;51.528;9.942;2023-10-13T02:35:58;4.97;;;3.28;;
34278;SDS011;20538;51.528;9.942;2023-10-13T02:38:25;5.65;;;3.60;;
34278;SDS011;20538;51.528;9.942;2023-10-13T02:41:03;9.52;;;3.88;;
34278;SDS011;20538;51.528;9.942;2023-10-13T02:43:35;8.20;;;3.33;;
34278;SDS011;20538;51.528;9.942;2023-10-13T02:46:01;5.68;;;3.42;;
34278;SDS011;20538;51.528;9.942;2023-10-13T02:48:29;4.75;;;3.47;;
34278;SDS011;20538;51.528;9.942;2023-10-13T02:53:40;9.30;;;3.75;;
34278;SDS011;20538;51.528;9.942;2023-10-13T02:56:06;11.20;;;3.85;;
34278;SDS011;20538;51.528;9.942;2023-10-13T02:58:32;6.22;;;3.80;;
34278;SDS011;20538;51.528;9.942;2023-10-13T03:01:07;6.57;;;3.40;;
34278;SDS011;20538;51.528;9.942;2023-10-13T03:03:49;9.93;;;3.97;;
34278;SDS011;20538;51.528;9.942;2023-10-13T03:06:25;5.00;;;3.13;;
34278;SDS011;20538;51.528;9.942;2023-10-13T03:11:39;6.70;;;3.30;;
34278;SDS011;20538;51.528;9.942;2023-10-13T03:14:12;16.30;;;4.13;;
34278;SDS011;20538;51.528;9.942;2023-10-13T03:19:15;7.57;;;3.67;;
34278;SDS011;20538;51.528;9.942;2023-10-13T03:21:44;6.55;;;4.00;;
34278;SDS011;20538;51.528;9.942;2023-10-13T03:24:11;4.22;;;3.00;;
34278;SDS011;20538;51.528;9.942;2023-10-13T03:26:38;10.82;;;3.45;;
34278;SDS011;20538;51.528;9.942;2023-10-13T03:29:09;8.02;;;3.70;;
34278;SDS011;20538;51.528;9.942;2023-10-13T03:31:39;6.32;;;3.95;;
34278;SDS011;20538;51.528;9.942;2023-10-13T03:34:05;9.55;;;3.95;;
34278;SDS011;20538;51.528;9.942;2023-10-13T03:36:34;5.43;;;3.65;;
34278;SDS011;20538;51.528;9.942;2023-10-13T03:39:19;6.55;;;3.35;;
34278;SDS011;20538;51.528;9.942;2023-10-13T03:41:51;7.95;;;3.55;;
34278;SDS011;20538;51.528;9.942;2023-10-13T03:44:19;9.75;;;3.70;;
34278;SDS011;20538;51.528;9.942;2023-10-13T03:46:45;6.93;;;4.30;;
34278;SDS011;20538;51.528;9.942;2023-10-13T03:49:14;7.80;;;3.45;;
34278;SDS011;20538;51.528;9.942;2023-10-13T03:51:45;12.43;;;3.60;;
34278;SDS011;20538;51.528;9.942;2023-10-13T03:54:12;6.35;;;4.25;;
34278;SDS011;20538;51.528;9.942;2023-10-13T03:56:41;16.63;;;4.05;;
34278;SDS011;20538;51.528;9.942;2023-10-13T03:59:09;9.57;;;4.05;;
34278;SDS011;20538;51.528;9.942;2023-10-13T04:01:46;6.03;;;3.90;;
34278;SDS011;20538;51.528;9.942;2023-10-13T04:04:13;7.50;;;4.15;;
34278;SDS011;20538;51.528;9.942;2023-10-13T04:06:57;6.57;;;4.22;;
34278;SDS011;20538;51.528;9.942;2023-10-13T04:09:37;6.40;;;3.15;;
34278;SDS011;20538;51.528;9.942;2023-10-13T04:12:12;10.15;;;4.13;;
34278;SDS011;20538;51.528;9.942;2023-10-13T04:14:41;9.30;;;4.03;;
34278;SDS011;20538;51.528;9.942;2023-10-13T04:17:40;8.02;;;4.13;;
34278;SDS011;20538;51.528;9.942;2023-10-13T04:20:09;12.05;;;4.55;;
34278;SDS011;20538;51.528;9.942;2023-10-13T04:22:35;5.72;;;3.50;;
34278;SDS011;20538;51.528;9.942;2023-10-13T04:25:14;6.55;;;4.15;;
34278;SDS011;20538;51.528;9.942;2023-10-13T04:28:09;7.93;;;4.03;;
34278;SDS011;20538;51.528;9.942;2023-10-13T04:33:20;7.75;;;3.97;;
34278;SDS011;20538;51.528;9.942;2023-10-13T04:38:53;7.63;;;3.95;;
34278;SDS011;20538;51.528;9.942;2023-10-13T04:41:25;9.98;;;3.17;;
34278;SDS011;20538;51.528;9.942;2023-10-13T04:44:04;10.43;;;4.05;;
34278;SDS011;20538;51.528;9.942;2023-10-13T04:46:49;8.25;;;4.03;;
34278;SDS011;20538;51.528;9.942;2023-10-13T04:49:15;8.63;;;4.20;;
34278;SDS011;20538;51.528;9.942;2023-10-13T04:52:00;15.98;;;4.40;;
34278;SDS011;20538;51.528;9.942;2023-10-13T04:57:16;6.38;;;4.13;;
34278;SDS011;20538;51.528;9.942;2023-10-13T04:59:48;10.60;;;4.20;;
34278;SDS011;20538;51.528;9.942;2023-10-13T05:02:33;9.45;;;4.47;;
34278;SDS011;20538;51.528;9.942;2023-10-13T05:05:08;6.93;;;3.67;;
34278;SDS011;20538;51.528;9.942;2023-10-13T05:07:38;7.20;;;4.15;;
34278;SDS011;20538;51.528;9.942;2023-10-13T05:10:22;7.93;;;4.15;;
34278;SDS011;20538;51.528;9.942;2023-10-13T05:13:07;7.07;;;3.80;;
34278;SDS011;20538;51.528;9.942;2023-10-13T05:15:51;7.72;;;3.90;;
34278;SDS011;20538;51.528;9.942;2023-10-13T05:18:35;7.90;;;3.92;;
34278;SDS011;20538;51.528;9.942;2023-10-13T05:21:20;6.68;;;3.72;;
34278;SDS011;20538;51.528;9.942;2023-10-13T05:24:05;10.85;;;4.13;;
34278;SDS011;20538;51.528;9.942;2023-10-13T05:26:50;9.25;;;4.75;;
34278;SDS011;20538;51.528;9.942;2023-10-13T05:29:39;4.78;;;3.55;;
34278;SDS011;20538;51.528;9.942;2023-10-13T05:32:24;5.72;;;3.65;;
34278;SDS011;20538;51.528;9.942;2023-10-13T05:35:08;8.77;;;3.90;;
34278;SDS011;20538;51.528;9.942;2023-10-13T05:37:52;7.55;;;3.55;;
34278;SDS011;20538;51.528;9.942;2023-10-13T05:40:36;6.30;;;3.78;;
34278;SDS011;20538;51.528;9.942;2023-10-13T05:43:20;7.65;;;3.67;;
34278;SDS011;20538;51.528;9.942;2023-10-13T05:46:05;10.07;;;3.88;;
34278;SDS011;20538;51.528;9.942;2023-10-13T05:48:49;7.82;;;4.32;;
34278;SDS011;20538;51.528;9.942;2023-10-13T05:51:24;11.27;;;4.70;;
34278;SDS011;20538;51.528;9.942;2023-10-13T05:54:17;6.40;;;3.72;;
34278;SDS011;20538;51.528;9.942;2023-10-13T05:56:43;8.45;;;4.22;;
34278;SDS011;20538;51.528;9.942;2023-10-13T05:59:32;8.43;;;3.95;;
34278;SDS011;20538;51.528;9.942;2023-10-13T06:02:18;6.22;;;4.05;;
34278;SDS011;20538;51.528;9.942;2023-10-13T06:07:47;8.27;;;4.35;;
34278;SDS011;20538;51.528;9.942;2023-10-13T06:10:32;6.47;;;4.15;;
34278;SDS011;20538;51.528;9.942;2023-10-13T06:13:16;8.68;;;3.28;;
34278;SDS011;20538;51.528;9.942;2023-10-13T06:16:04;5.32;;;3.55;;
34278;SDS011;20538;51.528;9.942;2023-10-13T06:18:52;5.97;;;3.65;;
34278;SDS011;20538;51.528;9.942;2023-10-13T06:21:37;7.07;;;3.33;;
34278;SDS011;20538;51.528;9.942;2023-10-13T06:24:21;7.55;;;4.40;;
34278;SDS011;20538;51.528;9.942;2023-10-13T06:27:05;8.70;;;4.53;;
34278;SDS011;20538;51.528;9.942;2023-10-13T06:29:49;9.02;;;3.70;;
34278;SDS011;20538;51.528;9.942;2023-10-13T06:32:15;7.78;;;3.60;;
34278;SDS011;20538;51.528;9.942;2023-10-13T06:34:44;11.48;;;4.07;;
34278;SDS011;20538;51.528;9.942;2023-10-13T06:37:11;9.20;;;3.90;;
34278;SDS011;20538;51.528;9.942;2023-10-13T06:40:02;13.88;;;3.65;;
34278;SDS011;20538;51.528;9.942;2023-10-13T06:42:47;6.68;;;3.47;;
34278;SDS011;20538;51.528;9.942;2023-10-13T06:45:18;5.15;;;3.63;;
34278;SDS011;20538;51.528;9.942;2023-10-13T06:47:45;7.05;;;3.75;;
34278;SDS011;20538;51.528;9.942;2023-10-13T06:50:13;7.35;;;3.92;;
34278;SDS011;20538;51.528;9.942;2023-10-13T06:52:45;6.32;;;3.83;;
34278;SDS011;20538;51.528;9.942;2023-10-13T06:55:14;4.97;;;3.58;;
34278;SDS011;20538;51.528;9.942;2023-10-13T06:57:56;5.85;;;3.60;;
34278;SDS011;20538;51.528;9.942;2023-10-13T07:00:25;9.40;;;4.57;;
34278;SDS011;20538;51.528;9.942;2023-10-13T07:03:00;7.50;;;4.13;;
34278;SDS011;20538;51.528;9.942;2023-10-13T07:05:35;9.63;;;3.83;;
34278;SDS011;20538;51.528;9.942;2023-10-13T07:08:03;6.15;;;3.75;;
34278;SDS011;20538;51.528;9.942;2023-10-13T07:10:30;12.95;;;4.05;;
34278;SDS011;20538;51.528;9.942;2023-10-13T07:12:55;10.00;;;4.40;;
34278;SDS011;20538;51.528;9.942;2023-10-13T07:15:26;10.55;;;4.25;;
34278;SDS011;20538;51.528;9.942;2023-10-13T07:17:54;5.88;;;3.88;;
34278;SDS011;20538;51.528;9.942;2023-10-13T07:20:24;4.05;;;3.30;;
34278;SDS011;20538;51.528;9.942;2023-10-13T07:23:01;8.65;;;3.50;;
34278;SDS011;20538;51.528;9.942;2023-10-13T07:25:31;6.80;;;3.60;;
34278;SDS011;20538;51.528;9.942;2023-10-13T07:28:02;9.05;;;4.57;;
34278;SDS011;20538;51.528;9.942;2023-10-13T07:30:38;5.00;;;3.55;;
34278;SDS011;20538;51.528;9.942;2023-10-13T07:33:27;10.65;;;4.60;;
34278;SDS011;20538;51.528;9.942;2023-10-13T07:35:59;6.70;;;4.22;;
34278;SDS011;20538;51.528;9.942;2023-10-13T07:38:45;7.28;;;4.55;;
34278;SDS011;20538;51.528;9.942;2023-10-13T07:41:17;6.68;;;4.15;;
34278;SDS011;20538;51.528;9.942;2023-10-13T07:43:42;6.18;;;4.18;;
34278;SDS011;20538;51.528;9.942;2023-10-13T07:46:10;7.85;;;4.30;;
34278;SDS011;20538;51.528;9.942;2023-10-13T07:48:37;8.70;;;4.82;;
34278;SDS011;20538;51.528;9.942;2023-10-13T07:51:06;9.15;;;4.05;;
34278;SDS011;20538;51.528;9.942;2023-10-13T07:53:37;7.88;;;5.00;;
34278;SDS011;20538;51.528;9.942;2023-10-13T07:56:05;7.25;;;4.55;;
34278;SDS011;20538;51.528;9.942;2023-10-13T07:58:37;11.70;;;5.28;;
34278;SDS011;20538;51.528;9.942;2023-10-13T08:01:12;6.75;;;4.22;;
34278;SDS011;20538;51.528;9.942;2023-10-13T08:03:45;8.82;;;4.57;;
34278;SDS011;20538;51.528;9.942;2023-10-13T08:06:15;10.63;;;5.03;;
34278;SDS011;20538;51.528;9.942;2023-10-13T08:08:41;7.80;;;4.82;;
34278;SDS011;20538;51.528;9.942;2023-10-13T08:11:15;11.00;;;4.75;;
34278;SDS011;20538;51.528;9.942;2023-10-13T08:13:47;12.68;;;4.97;;
34278;SDS011;20538;51.528;9.942;2023-10-13T08:16:19;8.85;;;5.03;;
34278;SDS011;20538;51.528;9.942;2023-10-13T08:18:51;8.15;;;5.28;;
34278;SDS011;20538;51.528;9.942;2023-10-13T08:21:17;18.70;;;5.57;;
34278;SDS011;20538;51.528;9.942;2023-10-13T08:23:50;10.75;;;5.20;;
34278;SDS011;20538;51.528;9.942;2023-10-13T08:26:19;10.63;;;4.32;;
34278;SDS011;20538;51.528;9.942;2023-10-13T08:28:55;5.85;;;4.07;;
34278;SDS011;20538;51.528;9.942;2023-10-13T08:31:22;6.00;;;4.40;;
34278;SDS011;20538;51.528;9.942;2023-10-13T08:33:50;7.30;;;4.03;;
34278;SDS011;20538;51.528;9.942;2023-10-13T08:36:23;7.28;;;4.30;;
34278;SDS011;20538;51.528;9.942;2023-10-13T08:38:55;9.55;;;4.25;;
34278;SDS011;20538;51.528;9.942;2023-10-13T08:41:22;13.38;;;5.20;;
34278;SDS011;20538;51.528;9.942;2023-10-13T08:43:49;7.05;;;4.32;;
34278;SDS011;20538;51.528;9.942;2023-10-13T08:46:19;7.07;;;3.80;;
34278;SDS011;20538;51.528;9.942;2023-10-13T08:48:56;13.85;;;3.65;;
34278;SDS011;20538;51.528;9.942;2023-10-13T08:51:40;6.10;;;4.07;;
34278;SDS011;20538;51.528;9.942;2023-10-13T08:54:14;9.18;;;4.30;;
34278;SDS011;20538;51.528;9.942;2023-10-13T08:57:06;6.55;;;3.65;;
34278;SDS011;20538;51.528;9.942;2023-10-13T08:59:52;9.50;;;4.45;;
34278;SDS011;20538;51.528;9.942;2023-10-13T09:02:43;9.20;;;3.30;;
34278;SDS011;20538;51.528;9.942;2023-10-13T09:05:24;14.80;;;3.80;;
34278;SDS011;20538;51.528;9.942;2023-10-13T09:08:25;6.55;;;2.80;;
34278;SDS011;20538;51.528;9.942;2023-10-13T09:11:03;8.20;;;3.92;;
34278;SDS011;20538;51.528;9.942;2023-10-13T09:13:39;7.68;;;3.95;;
34278;SDS011;20538;51.528;9.942;2023-10-13T09:16:11;9.85;;;3.50;;
34278;SDS011;20538;51.528;9.942;2023-10-13T09:19:06;9.85;;;3.33;;
34278;SDS011;20538;51.528;9.942;2023-10-13T09:21:39;5.47;;;3.25;;
34278;SDS011;20538;51.528;9.942;2023-10-13T09:24:05;8.38;;;3.55;;
34278;SDS011;20538;51.528;9.942;2023-10-13T09:26:54;4.97;;;3.10;;
34278;SDS011;20538;51.528;9.942;2023-10-13T09:29:21;10.25;;;3.38;;
34278;SDS011;20538;51.528;9.942;2023-10-13T09:31:47;10.77;;;2.50;;
34278;SDS011;20538;51.528;9.942;2023-10-13T09:34:24;6.72;;;3.10;;
34278;SDS011;20538;51.528;9.942;2023-10-13T09:36:54;9.70;;;3.78;;
34278;SDS011;20538;51.528;9.942;2023-10-13T09:39:26;8.18;;;3.13;;
34278;SDS011;20538;51.528;9.942;2023-10-13T09:41:55;10.00;;;3.15;;
34278;SDS011;20538;51.528;9.942;2023-10-13T09:44:25;8.07;;;2.58;;
34278;SDS011;20538;51.528;9.942;2023-10-13T09:46:55;6.00;;;2.72;;
34278;SDS011;20538;51.528;9.942;2023-10-13T09:49:32;6.93;;;2.47;;
34278;SDS011;20538;51.528;9.942;2023-10-13T09:52:13;22.88;;;3.05;;
34278;SDS011;20538;51.528;9.942;2023-10-13T09:54:58;6.70;;;2.78;;
34278;SDS011;20538;51.528;9.942;2023-10-13T09:57:33;5.88;;;3.03;;
34278;SDS011;20538;51.528;9.942;2023-10-13T10:00:12;13.05;;;3.25;;
34278;SDS011;20538;51.528;9.942;2023-10-13T10:03:00;6.32;;;2.92;;
34278;SDS011;20538;51.528;9.942;2023-10-13T10:05:40;7.47;;;2.35;;
34278;SDS011;20538;51.528;9.942;2023-10-13T10:08:22;5.75;;;2.60;;
34278;SDS011;20538;51.528;9.942;2023-10-13T10:10:59;4.68;;;2.70;;
34278;SDS011;20538;51.528;9.942;2023-10-13T10:13:45;10.05;;;4.63;;
34278;SDS011;20538;51.528;9.942;2023-10-13T10:16:19;8.40;;;2.78;;
34278;SDS011;20538;51.528;9.942;2023-10-13T10:19:04;9.07;;;2.70;;
34278;SDS011;20538;51.528;9.942;2023-10-13T10:21:35;5.15;;;2.60;;
34278;SDS011;20538;51.528;9.942;2023-10-13T10:24:01;8.25;;;2.60;;
34278;SDS011;20538;51.528;9.942;2023-10-13T10:26:33;8.23;;;2.88;;
34278;SDS011;20538;51.528;9.942;2023-10-13T10:28:58;6.97;;;2.97;;
34278;SDS011;20538;51.528;9.942;2023-10-13T10:31:32;8.73;;;2.72;;
34278;SDS011;20538;51.528;9.942;2023-10-13T10:34:15;9.32;;;2.72;;
34278;SDS011;20538;51.528;9.942;2023-10-13T10:36:46;19.38;;;3.05;;
34278;SDS011;20538;51.528;9.942;2023-10-13T10:39:32;10.38;;;2.90;;
34278;SDS011;20538;51.528;9.942;2023-10-13T10:42:10;7.78;;;2.72;;
34278;SDS011;20538;51.528;9.942;2023-10-13T10:44:40;9.55;;;2.53;;
34278;SDS011;20538;51.528;9.942;2023-10-13T10:47:12;6.72;;;2.88;;
34278;SDS011;20538;51.528;9.942;2023-10-13T10:49:59;9.07;;;2.97;;
34278;SDS011;20538;51.528;9.942;2023-10-13T10:52:32;9.13;;;2.92;;
34278;SDS011;20538;51.528;9.942;2023-10-13T10:55:02;9.00;;;2.45;;
34278;SDS011;20538;51.528;9.942;2023-10-13T10:57:32;5.20;;;2.90;;
34278;SDS011;20538;51.528;9.942;2023-10-13T11:00:05;6.53;;;2.55;;
34278;SDS011;20538;51.528;9.942;2023-10-13T11:03:03;5.60;;;2.65;;
34278;SDS011;20538;51.528;9.942;2023-10-13T11:05:30;10.57;;;2.83;;
34278;SDS011;20538;51.528;9.942;2023-10-13T11:07:58;7.10;;;2.42;;
34278;SDS011;20538;51.528;9.942;2023-10-13T11:10:24;10.52;;;3.28;;
34278;SDS011;20538;51.528;9.942;2023-10-13T11:12:56;6.88;;;2.90;;
34278;SDS011;20538;51.528;9.942;2023-10-13T11:15:43;6.75;;;2.55;;
34278;SDS011;20538;51.528;9.942;2023-10-13T11:18:09;7.72;;;2.75;;
34278;SDS011;20538;51.528;9.942;2023-10-13T11:20:42;9.35;;;2.83;;
34278;SDS011;20538;51.528;9.942;2023-10-13T11:23:11;7.20;;;3.47;;
34278;SDS011;20538;51.528;9.942;2023-10-13T11:25:37;6.97;;;3.13;;
34278;SDS011;20538;51.528;9.942;2023-10-13T11:28:13;4.68;;;3.42;;
34278;SDS011;20538;51.528;9.942;2023-10-13T11:30:44;7.70;;;2.80;;
34278;SDS011;20538;51.528;9.942;2023-10-13T11:33:18;5.53;;;2.70;;
34278;SDS011;20538;51.528;9.942;2023-10-13T11:35:48;4.85;;;2.03;;
34278;SDS011;20538;51.528;9.942;2023-10-13T11:38:14;7.65;;;2.58;;
34278;SDS011;20538;51.528;9.942;2023-10-13T11:43:31;6.25;;;2.80;;
34278;SDS011;20538;51.528;9.942;2023-10-13T11:46:20;17.27;;;2.92;;
34278;SDS011;20538;51.528;9.942;2023-10-13T11:51:51;5.40;;;2.38;;
34278;SDS011;20538;51.528;9.942;2023-10-13T11:54:18;6.32;;;2.55;;
34278;SDS011;20538;51.528;9.942;2023-10-13T11:56:45;4.05;;;2.88;;
34278;SDS011;20538;51.528;9.942;2023-10-13T11:59:11;9.93;;;3.38;;
34278;SDS011;20538;51.528;9.942;2023-10-13T12:01:45;7.93;;;3.63;;
34278;SDS011;20538;51.528;9.942;2023-10-13T12:04:33;7.13;;;3.03;;
34278;SDS011;20538;51.528;9.942;2023-10-13T12:07:20;8.88;;;3.15;;
34278;SDS011;20538;51.528;9.942;2023-10-13T12:10:05;4.03;;;2.97;;
34278;SDS011;20538;51.528;9.942;2023-10-13T12:12:40;13.50;;;2.80;;
34278;SDS011;20538;51.528;9.942;2023-10-13T12:15:08;6.55;;;2.90;;
34278;SDS011;20538;51.528;9.942;2023-10-13T12:17:34;4.85;;;2.83;;
34278;SDS011;20538;51.528;9.942;2023-10-13T12:20:00;5.18;;;2.65;;
34278;SDS011;20538;51.528;9.942;2023-10-13T12:22:30;3.60;;;2.65;;
34278;SDS011;20538;51.528;9.942;2023-10-13T12:25:23;9.00;;;3.22;;
34278;SDS011;20538;51.528;9.942;2023-10-13T12:27:57;7.57;;;3.28;;
34278;SDS011;20538;51.528;9.942;2023-10-13T12:30:46;5.65;;;2.97;;
34278;SDS011;20538;51.528;9.942;2023-10-13T12:33:16;8.07;;;2.60;;
34278;SDS011;20538;51.528;9.942;2023-10-13T12:35:56;7.60;;;2.88;;
34278;SDS011;20538;51.528;9.942;2023-10-13T12:38:34;6.18;;;3.67;;
34278;SDS011;20538;51.528;9.942;2023-10-13T12:41:14;6.60;;;3.03;;
34278;SDS011;20538;51.528;9.942;2023-10-13T12:43:59;9.63;;;3.05;;
34278;SDS011;20538;51.528;9.942;2023-10-13T12:46:44;5.88;;;2.38;;
34278;SDS011;20538;51.528;9.942;2023-10-13T12:49:28;6.68;;;2.60;;
34278;SDS011;20538;51.528;9.942;2023-10-13T12:52:05;6.35;;;3.28;;
34278;SDS011;20538;51.528;9.942;2023-10-13T12:54:44;4.65;;;3.00;;
34278;SDS011;20538;51.528;9.942;2023-10-13T12:57:22;4.93;;;2.95;;
34278;SDS011;20538;51.528;9.942;2023-10-13T12:59:49;5.75;;;3.00;;
34278;SDS011;20538;51.528;9.942;2023-10-13T13:02:18;3.83;;;2.90;;
34278;SDS011;20538;51.528;9.942;2023-10-13T13:04:49;6.65;;;3.25;;
34278;SDS011;20538;51.528;9.942;2023-10-13T13:07:36;3.80;;;2.65;;
34278;SDS011;20538;51.528;9.942;2023-10-13T13:10:12;8.30;;;3.25;;
34278;SDS011;20538;51.528;9.942;2023-10-13T13:12:38;5.03;;;2.78;;
34278;SDS011;20538;51.528;9.942;2023-10-13T13:15:05;7.80;;;3.55;;
34278;SDS011;20538;51.528;9.942;2023-10-13T13:17:34;10.35;;;3.42;;
34278;SDS011;20538;51.528;9.942;2023-10-13T13:20:04;8.73;;;3.33;;
34278;SDS011;20538;51.528;9.942;2023-10-13T13:22:37;4.57;;;3.20;;
34278;SDS011;20538;51.528;9.942;2023-10-13T13:25:03;5.22;;;2.78;;
34278;SDS011;20538;51.528;9.942;2023-10-13T13:27:34;7.10;;;3.38;;
34278;SDS011;20538;51.528;9.942;2023-10-13T13:30:02;5.20;;;3.33;;
34278;SDS011;20538;51.528;9.942;2023-10-13T13:32:37;5.57;;;2.80;;
34278;SDS011;20538;51.528;9.942;2023-10-13T13:35:03;12.80;;;3.65;;
34278;SDS011;20538;51.528;9.942;2023-10-13T13:37:30;11.73;;;3.88;;
34278;SDS011;20538;51.528;9.942;2023-10-13T13:39:56;13.10;;;3.60;;
34278;SDS011;20538;51.528;9.942;2023-10-13T13:42:39;9.00;;;2.97;;
34278;SDS011;20538;51.528;9.942;2023-10-13T13:45:06;5.78;;;3.00;;
34278;SDS011;20538;51.528;9.942;2023-10-13T13:47:36;4.72;;;3.15;;
34278;SDS011;20538;51.528;9.942;2023-10-13T13:50:02;6.32;;;2.67;;
34278;SDS011;20538;51.528;9.942;2023-10-13T13:52:39;7.90;;;3.38;;
34278;SDS011;20538;51.528;9.942;2023-10-13T13:55:10;5.57;;;2.97;;
34278;SDS011;20538;51.528;9.942;2023-10-13T13:57:42;8.88;;;3.60;;
34278;SDS011;20538;51.528;9.942;2023-10-13T14:00:09;3.05;;;2.10;;
34278;SDS011;20538;51.528;9.942;2023-10-13T14:02:42;5.72;;;2.90;;
34278;SDS011;20538;51.528;9.942;2023-10-13T14:05:15;6.32;;;3.47;;
34278;SDS011;20538;51.528;9.942;2023-10-13T14:07:44;4.90;;;2.88;;
34278;SDS011;20538;51.528;9.942;2023-10-13T14:10:16;5.78;;;3.08;;
34278;SDS011;20538;51.528;9.942;2023-10-13T14:12:57;5.57;;;3.17;;
34278;SDS011;20538;51.528;9.942;2023-10-13T14:15:31;5.73;;;3.00;;
34278;SDS011;20538;51.528;9.942;2023-10-13T14:18:04;7.85;;;3.70;;
34278;SDS011;20538;51.528;9.942;2023-10-13T14:20:32;6.95;;;3.65;;
34278;SDS011;20538;51.528;9.942;2023-10-13T14:23:04;5.00;;;3.13;;
34278;SDS011;20538;51.528;9.942;2023-10-13T14:25:32;7.10;;;3.22;;
34278;SDS011;20538;51.528;9.942;2023-10-13T14:28:02;4.43;;;2.80;;
34278;SDS011;20538;51.528;9.942;2023-10-13T14:30:32;5.43;;;3.13;;
34278;SDS011;20538;51.528;9.942;2023-10-13T14:32:58;5.47;;;3.30;;
34278;SDS011;20538;51.528;9.942;2023-10-13T14:35:24;7.78;;;3.17;;
34278;SDS011;20538;51.528;9.942;2023-10-13T14:37:51;6.47;;;2.95;;
34278;SDS011;20538;51.528;9.942;2023-10-13T14:40:17;4.32;;;3.20;;
34278;SDS011;20538;51.528;9.942;2023-10-13T14:42:46;6.82;;;3.00;;
34278;SDS011;20538;51.528;9.942;2023-10-13T14:45:13;6.38;;;3.20;;
34278;SDS011;20538;51.528;9.942;2023-10-13T14:47:41;9.57;;;3.33;;
34278;SDS011;20538;51.528;9.942;2023-10-13T14:50:07;6.88;;;3.33;;
34278;SDS011;20538;51.528;9.942;2023-10-13T14:52:42;11.48;;;3.83;;
34278;SDS011;20538;51.528;9.942;2023-10-13T14:55:08;5.57;;;3.05;;
34278;SDS011;20538;51.528;9.942;2023-10-13T14:57:44;5.17;;;3.03;;
34278;SDS011;20538;51.528;9.942;2023-10-13T15:00:14;9.85;;;3.45;;
34278;SDS011;20538;51.528;9.942;2023-10-13T15:02:43;9.55;;;3.50;;
34278;SDS011;20538;51.528;9.942;2023-10-13T15:05:09;9.88;;;3.40;;
34278;SDS011;20538;51.528;9.942;2023-10-13T15:07:41;5.00;;;2.97;;
34278;SDS011;20538;51.528;9.942;2023-10-13T15:10:10;5.68;;;2.65;;
34278;SDS011;20538;51.528;9.942;2023-10-13T15:12:42;5.72;;;3.00;;
34278;SDS011;20538;51.528;9.942;2023-10-13T15:15:12;6.38;;;3.13;;
34278;SDS011;20538;51.528;9.942;2023-10-13T15:17:41;9.65;;;3.08;;
34278;SDS011;20538;51.528;9.942;2023-10-13T15:20:07;8.82;;;2.67;;
34278;SDS011;20538;51.528;9.942;2023-10-13T15:22:40;6.43;;;3.00;;
34278;SDS011;20538;51.528;9.942;2023-10-13T15:25:12;4.75;;;2.90;;
34278;SDS011;20538;51.528;9.942;2023-10-13T15:27:56;9.10;;;3.00;;
34278;SDS011;20538;51.528;9.942;2023-10-13T15:33:17;11.63;;;3.25;;
34278;SDS011;20538;51.528;9.942;2023-10-13T15:35:45;3.95;;;2.70;;
34278;SDS011;20538;51.528;9.942;2023-10-13T15:38:10;5.95;;;3.15;;
34278;SDS011;20538;51.528;9.942;2023-10-13T15:40:43;9.43;;;3.53;;
34278;SDS011;20538;51.528;9.942;2023-10-13T15:43:09;5.15;;;2.78;;
34278;SDS011;20538;51.528;9.942;2023-10-13T15:45:35;5.82;;;3.55;;
34278;SDS011;20538;51.528;9.942;2023-10-13T15:48:11;5.07;;;2.83;;
34278;SDS011;20538;51.528;9.942;2023-10-13T15:50:40;5.13;;;2.65;;
34278;SDS011;20538;51.528;9.942;2023-10-13T15:53:09;9.32;;;3.63;;